sensor_id;sensor_type;location;lat;lon;timestamp;pressure;altitude;pressure_sealevel;temperature;humidity
7662;BME280;30314;48.184;11.510;2022-11-15T00:02:00;95886.28;;;2.51;100.00
7662;BME280;30314;48.184;11.510;2022-11-15T00:04:49;95889.34;;;2.48;100.00
7662;BME280;30314;48.184;11.510;2022-11-15T00:07:35;95882.50;;;2.42;100.00
7662;BME280;30314;48.184;11.510;2022-11-15T00:10:40;95873.63;;;2.43;100.00
7662;BME280;30314;48.184;11.510;2022-11-15T00:13:28;95879.31;;;2.57;100.00
7662;BME280;30314;48.184;11.510;2022-11-15T00:16:15;95880.13;;;2.74;100.00
7662;BME280;30314;48.184;11.510;2022-11-15T00:19:02;95866.69;;;2.65;100.00
7662;BME280;30314;48.184;11.510;2022-11-15T00:21:48;95867.72;;;2.47;100.00
7662;BME280;30314;48.184;11.510;2022-11-15T00:24:35;95868.56;;;2.53;100.00
7662;BME280;30314;48.184;11.510;2022-11-15T00:27:21;95869.03;;;2.50;100.00
7662;BME280;30314;48.184;11.510;2022-11-15T00:30:10;95870.78;;;2.44;100.00
7662;BME280;30314;48.184;11.510;2022-11-15T00:32:56;95874.34;;;2.38;100.00
7662;BME280;30314;48.184;11.510;2022-11-15T00:35:44;95868.78;;;2.34;100.00
7662;BME280;30314;48.184;11.510;2022-11-15T00:38:31;95866.13;;;2.29;100.00
7662;BME280;30314;48.184;11.510;2022-11-15T00:41:17;95850.06;;;2.20;100.00
7662;BME280;30314;48.184;11.510;2022-11-15T00:44:04;95865.78;;;2.25;100.00
7662;BME280;30314;48.184;11.510;2022-11-15T00:46:51;95855.03;;;2.22;100.00
7662;BME280;30314;48.184;11.510;2022-11-15T00:49:38;95857.25;;;2.13;100.00
7662;BME280;30314;48.184;11.510;2022-11-15T00:52:25;95849.50;;;2.18;100.00
7662;BME280;30314;48.184;11.510;2022-11-15T00:55:13;95843.81;;;2.21;100.00
7662;BME280;30314;48.184;11.510;2022-11-15T00:58:01;95850.13;;;2.25;100.00
7662;BME280;30314;48.184;11.510;2022-11-15T01:00:47;95837.56;;;2.22;100.00
7662;BME280;30314;48.184;11.510;2022-11-15T01:03:34;95834.66;;;2.19;100.00
7662;BME280;30314;48.184;11.510;2022-11-15T01:06:21;95832.03;;;2.19;100.00
7662;BME280;30314;48.184;11.510;2022-11-15T01:09:07;95820.94;;;2.11;100.00
7662;BME280;30314;48.184;11.510;2022-11-15T01:11:53;95828.00;;;2.11;100.00
7662;BME280;30314;48.184;11.510;2022-11-15T01:14:39;95825.06;;;2.07;100.00
7662;BME280;30314;48.184;11.510;2022-11-15T01:17:26;95818.19;;;2.01;100.00
7662;BME280;30314;48.184;11.510;2022-11-15T01:20:13;95814.31;;;2.04;100.00
7662;BME280;30314;48.184;11.510;2022-11-15T01:22:59;95814.09;;;2.05;100.00
7662;BME280;30314;48.184;11.510;2022-11-15T01:25:45;95810.66;;;2.05;100.00
7662;BME280;30314;48.184;11.510;2022-11-15T01:28:32;95810.06;;;1.97;100.00
7662;BME280;30314;48.184;11.510;2022-11-15T01:31:20;95808.78;;;2.00;100.00
7662;BME280;30314;48.184;11.510;2022-11-15T01:34:06;95805.72;;;2.03;100.00
7662;BME280;30314;48.184;11.510;2022-11-15T01:36:54;95805.59;;;1.98;100.00
7662;BME280;30314;48.184;11.510;2022-11-15T01:39:40;95806.09;;;1.95;100.00
7662;BME280;30314;48.184;11.510;2022-11-15T01:42:27;95803.97;;;1.92;100.00
7662;BME280;30314;48.184;11.510;2022-11-15T01:45:14;95803.06;;;1.86;100.00
7662;BME280;30314;48.184;11.510;2022-11-15T01:48:01;95801.03;;;1.88;100.00
7662;BME280;30314;48.184;11.510;2022-11-15T01:50:48;95798.75;;;2.09;100.00
7662;BME280;30314;48.184;11.510;2022-11-15T01:53:38;95807.69;;;2.30;100.00
7662;BME280;30314;48.184;11.510;2022-11-15T01:56:30;95794.41;;;2.15;100.00
7662;BME280;30314;48.184;11.510;2022-11-15T01:59:18;95789.03;;;2.04;100.00
7662;BME280;30314;48.184;11.510;2022-11-15T02:02:06;95785.72;;;1.92;100.00
7662;BME280;30314;48.184;11.510;2022-11-15T02:04:52;95773.22;;;1.94;100.00
7662;BME280;30314;48.184;11.510;2022-11-15T02:07:39;95771.16;;;1.79;100.00
7662;BME280;30314;48.184;11.510;2022-11-15T02:10:27;95781.28;;;1.75;100.00
7662;BME280;30314;48.184;11.510;2022-11-15T02:13:14;95783.56;;;1.72;100.00
7662;BME280;30314;48.184;11.510;2022-11-15T02:16:09;95782.50;;;1.55;100.00
7662;BME280;30314;48.184;11.510;2022-11-15T02:19:03;95782.75;;;1.54;100.00
7662;BME280;30314;48.184;11.510;2022-11-15T02:22:04;95772.47;;;1.47;100.00
7662;BME280;30314;48.184;11.510;2022-11-15T02:25:17;95769.84;;;1.47;100.00
7662;BME280;30314;48.184;11.510;2022-11-15T02:28:26;95771.56;;;1.42;100.00
7662;BME280;30314;48.184;11.510;2022-11-15T02:31:24;95770.38;;;1.32;100.00
7662;BME280;30314;48.184;11.510;2022-11-15T02:34:19;95762.22;;;1.29;100.00
7662;BME280;30314;48.184;11.510;2022-11-15T02:37:15;95760.09;;;1.25;100.00
7662;BME280;30314;48.184;11.510;2022-11-15T02:40:10;95758.72;;;1.23;100.00
7662;BME280;30314;48.184;11.510;2022-11-15T02:43:04;95759.59;;;1.29;100.00
7662;BME280;30314;48.184;11.510;2022-11-15T02:46:15;95754.94;;;1.31;100.00
7662;BME280;30314;48.184;11.510;2022-11-15T02:49:06;95760.16;;;1.31;100.00
7662;BME280;30314;48.184;11.510;2022-11-15T02:51:55;95756.78;;;1.30;100.00
7662;BME280;30314;48.184;11.510;2022-11-15T02:54:42;95752.81;;;1.27;100.00
7662;BME280;30314;48.184;11.510;2022-11-15T02:57:37;95750.56;;;1.19;100.00
7662;BME280;30314;48.184;11.510;2022-11-15T03:00:34;95752.63;;;1.17;100.00
7662;BME280;30314;48.184;11.510;2022-11-15T03:03:38;95743.69;;;1.13;100.00
7662;BME280;30314;48.184;11.510;2022-11-15T03:06:35;95735.81;;;1.08;100.00
7662;BME280;30314;48.184;11.510;2022-11-15T03:09:31;95725.28;;;1.03;100.00
7662;BME280;30314;48.184;11.510;2022-11-15T03:12:25;95725.53;;;1.01;100.00
7662;BME280;30314;48.184;11.510;2022-11-15T03:15:17;95717.13;;;0.99;100.00
7662;BME280;30314;48.184;11.510;2022-11-15T03:18:11;95724.63;;;0.95;100.00
7662;BME280;30314;48.184;11.510;2022-11-15T03:21:04;95725.75;;;1.00;100.00
7662;BME280;30314;48.184;11.510;2022-11-15T03:23:55;95725.75;;;1.00;100.00
7662;BME280;30314;48.184;11.510;2022-11-15T03:26:45;95715.69;;;0.91;100.00
7662;BME280;30314;48.184;11.510;2022-11-15T03:29:36;95718.41;;;0.96;100.00
7662;BME280;30314;48.184;11.510;2022-11-15T03:32:26;95712.66;;;0.94;100.00
7662;BME280;30314;48.184;11.510;2022-11-15T03:35:17;95709.56;;;0.97;100.00
7662;BME280;30314;48.184;11.510;2022-11-15T03:38:09;95717.84;;;0.94;100.00
7662;BME280;30314;48.184;11.510;2022-11-15T03:41:01;95713.97;;;0.97;100.00
7662;BME280;30314;48.184;11.510;2022-11-15T03:43:52;95718.22;;;0.86;100.00
7662;BME280;30314;48.184;11.510;2022-11-15T03:46:46;95708.16;;;0.78;100.00
7662;BME280;30314;48.184;11.510;2022-11-15T03:49:35;95718.00;;;0.76;100.00
7662;BME280;30314;48.184;11.510;2022-11-15T03:52:22;95707.72;;;0.81;100.00
7662;BME280;30314;48.184;11.510;2022-11-15T03:55:12;95707.94;;;0.79;100.00
7662;BME280;30314;48.184;11.510;2022-11-15T03:58:01;95693.56;;;0.77;100.00
7662;BME280;30314;48.184;11.510;2022-11-15T04:00:47;95697.75;;;0.78;100.00
7662;BME280;30314;48.184;11.510;2022-11-15T04:03:34;95691.50;;;0.79;100.00
7662;BME280;30314;48.184;11.510;2022-11-15T04:06:20;95712.47;;;0.72;100.00
7662;BME280;30314;48.184;11.510;2022-11-15T04:09:07;95698.22;;;0.75;100.00
7662;BME280;30314;48.184;11.510;2022-11-15T04:11:53;95685.19;;;0.75;100.00
7662;BME280;30314;48.184;11.510;2022-11-15T04:14:41;95679.72;;;0.88;100.00
7662;BME280;30314;48.184;11.510;2022-11-15T04:17:50;95677.81;;;0.83;100.00
7662;BME280;30314;48.184;11.510;2022-11-15T04:20:37;95682.72;;;0.80;100.00
7662;BME280;30314;48.184;11.510;2022-11-15T04:23:40;95689.84;;;0.73;100.00
7662;BME280;30314;48.184;11.510;2022-11-15T04:26:44;95673.81;;;0.64;100.00
7662;BME280;30314;48.184;11.510;2022-11-15T04:29:30;95687.59;;;0.64;100.00
7662;BME280;30314;48.184;11.510;2022-11-15T04:32:23;95685.13;;;0.58;100.00
7662;BME280;30314;48.184;11.510;2022-11-15T04:35:09;95672.44;;;0.61;100.00
7662;BME280;30314;48.184;11.510;2022-11-15T04:37:57;95666.22;;;0.62;100.00
7662;BME280;30314;48.184;11.510;2022-11-15T04:40:44;95674.59;;;0.64;100.00
7662;BME280;30314;48.184;11.510;2022-11-15T04:43:30;95674.91;;;0.68;100.00
7662;BME280;30314;48.184;11.510;2022-11-15T04:46:17;95662.97;;;0.55;100.00
7662;BME280;30314;48.184;11.510;2022-11-15T04:49:05;95676.53;;;0.57;100.00
7662;BME280;30314;48.184;11.510;2022-11-15T04:51:51;95670.09;;;0.48;100.00
7662;BME280;30314;48.184;11.510;2022-11-15T04:54:38;95676.00;;;0.43;100.00
7662;BME280;30314;48.184;11.510;2022-11-15T04:57:24;95671.94;;;0.47;100.00
7662;BME280;30314;48.184;11.510;2022-11-15T05:00:12;95677.03;;;0.42;100.00
7662;BME280;30314;48.184;11.510;2022-11-15T05:02:58;95671.72;;;0.37;100.00
7662;BME280;30314;48.184;11.510;2022-11-15T05:06:05;95667.75;;;0.34;100.00
7662;BME280;30314;48.184;11.510;2022-11-15T05:08:51;95661.78;;;0.34;100.00
7662;BME280;30314;48.184;11.510;2022-11-15T05:11:38;95641.31;;;0.25;100.00
7662;BME280;30314;48.184;11.510;2022-11-15T05:14:24;95658.47;;;0.38;100.00
7662;BME280;30314;48.184;11.510;2022-11-15T05:17:10;95646.63;;;0.31;100.00
7662;BME280;30314;48.184;11.510;2022-11-15T05:19:57;95639.88;;;0.18;100.00
7662;BME280;30314;48.184;11.510;2022-11-15T05:22:44;95645.53;;;0.15;100.00
7662;BME280;30314;48.184;11.510;2022-11-15T05:25:30;95641.91;;;0.16;100.00
7662;BME280;30314;48.184;11.510;2022-11-15T05:28:17;95636.38;;;0.12;100.00
7662;BME280;30314;48.184;11.510;2022-11-15T05:31:04;95629.81;;;0.09;100.00
7662;BME280;30314;48.184;11.510;2022-11-15T05:33:53;95634.00;;;0.10;100.00
7662;BME280;30314;48.184;11.510;2022-11-15T05:36:42;95634.91;;;0.04;100.00
7662;BME280;30314;48.184;11.510;2022-11-15T05:39:30;95632.19;;;0.11;100.00
7662;BME280;30314;48.184;11.510;2022-11-15T05:42:17;95636.72;;;0.04;100.00
7662;BME280;30314;48.184;11.510;2022-11-15T05:45:05;95623.63;;;-0.02;100.00
7662;BME280;30314;48.184;11.510;2022-11-15T05:47:54;95614.13;;;-0.08;100.00
7662;BME280;30314;48.184;11.510;2022-11-15T05:50:45;95608.16;;;-0.08;100.00
7662;BME280;30314;48.184;11.510;2022-11-15T05:53:32;95617.75;;;0.03;100.00
7662;BME280;30314;48.184;11.510;2022-11-15T05:56:20;95618.09;;;0.07;100.00
7662;BME280;30314;48.184;11.510;2022-11-15T05:59:07;95614.69;;;0.06;100.00
7662;BME280;30314;48.184;11.510;2022-11-15T06:01:54;95612.06;;;0.06;100.00
7662;BME280;30314;48.184;11.510;2022-11-15T06:04:40;95617.75;;;0.03;100.00
7662;BME280;30314;48.184;11.510;2022-11-15T06:07:28;95620.47;;;-0.04;100.00
7662;BME280;30314;48.184;11.510;2022-11-15T06:10:15;95623.41;;;0.00;100.00
7662;BME280;30314;48.184;11.510;2022-11-15T06:13:03;95620.09;;;0.17;100.00
7662;BME280;30314;48.184;11.510;2022-11-15T06:15:50;95602.91;;;0.04;100.00
7662;BME280;30314;48.184;11.510;2022-11-15T06:18:36;95601.22;;;0.09;100.00
7662;BME280;30314;48.184;11.510;2022-11-15T06:21:23;95591.19;;;0.01;100.00
7662;BME280;30314;48.184;11.510;2022-11-15T06:24:12;95605.63;;;0.09;100.00
7662;BME280;30314;48.184;11.510;2022-11-15T06:26:59;95609.47;;;0.06;100.00
7662;BME280;30314;48.184;11.510;2022-11-15T06:29:46;95604.28;;;0.06;100.00
7662;BME280;30314;48.184;11.510;2022-11-15T06:32:32;95605.31;;;0.05;100.00
7662;BME280;30314;48.184;11.510;2022-11-15T06:35:19;95605.75;;;0.02;100.00
7662;BME280;30314;48.184;11.510;2022-11-15T06:38:07;95609.94;;;0.03;100.00
7662;BME280;30314;48.184;11.510;2022-11-15T06:40:54;95607.22;;;-0.02;100.00
7662;BME280;30314;48.184;11.510;2022-11-15T06:43:40;95604.31;;;-0.06;100.00
7662;BME280;30314;48.184;11.510;2022-11-15T06:46:28;95607.22;;;-0.02;100.00
7662;BME280;30314;48.184;11.510;2022-11-15T06:49:15;95592.31;;;-0.07;100.00
7662;BME280;30314;48.184;11.510;2022-11-15T06:52:01;95600.44;;;-0.03;100.00
7662;BME280;30314;48.184;11.510;2022-11-15T06:54:48;95618.63;;;0.09;100.00
7662;BME280;30314;48.184;11.510;2022-11-15T06:57:34;95610.16;;;0.02;100.00
7662;BME280;30314;48.184;11.510;2022-11-15T07:00:21;95627.34;;;0.15;100.00
7662;BME280;30314;48.184;11.510;2022-11-15T07:03:09;95602.91;;;0.04;100.00
7662;BME280;30314;48.184;11.510;2022-11-15T07:05:57;95634.00;;;0.22;100.00
7662;BME280;30314;48.184;11.510;2022-11-15T07:08:51;95632.16;;;0.23;100.00
7662;BME280;30314;48.184;11.510;2022-11-15T07:11:37;95630.13;;;0.25;100.00
7662;BME280;30314;48.184;11.510;2022-11-15T07:14:23;95628.09;;;0.27;100.00
7662;BME280;30314;48.184;11.510;2022-11-15T07:17:09;95628.53;;;0.36;100.00
7662;BME280;30314;48.184;11.510;2022-11-15T07:19:57;95625.00;;;0.42;100.00
7662;BME280;30314;48.184;11.510;2022-11-15T07:22:43;95633.69;;;0.48;100.00
7662;BME280;30314;48.184;11.510;2022-11-15T07:25:30;95628.56;;;0.53;100.00
7662;BME280;30314;48.184;11.510;2022-11-15T07:28:16;95635.00;;;0.62;100.00
7662;BME280;30314;48.184;11.510;2022-11-15T07:31:04;95635.13;;;0.67;100.00
7662;BME280;30314;48.184;11.510;2022-11-15T07:33:51;95641.50;;;0.77;100.00
7662;BME280;30314;48.184;11.510;2022-11-15T07:36:38;95624.50;;;0.86;100.00
7662;BME280;30314;48.184;11.510;2022-11-15T07:39:24;95619.81;;;1.00;100.00
7662;BME280;30314;48.184;11.510;2022-11-15T07:42:11;95598.53;;;0.91;100.00
7662;BME280;30314;48.184;11.510;2022-11-15T07:45:15;95609.31;;;1.12;100.00
7662;BME280;30314;48.184;11.510;2022-11-15T07:48:01;95615.16;;;1.19;100.00
7662;BME280;30314;48.184;11.510;2022-11-15T07:50:47;95605.84;;;1.23;100.00
7662;BME280;30314;48.184;11.510;2022-11-15T07:53:35;95610.97;;;1.35;100.00
7662;BME280;30314;48.184;11.510;2022-11-15T07:56:21;95603.72;;;1.54;100.00
7662;BME280;30314;48.184;11.510;2022-11-15T07:59:07;95599.31;;;1.55;100.00
7662;BME280;30314;48.184;11.510;2022-11-15T08:01:54;95599.38;;;1.60;100.00
7662;BME280;30314;48.184;11.510;2022-11-15T08:04:40;95594.19;;;1.82;100.00
7662;BME280;30314;48.184;11.510;2022-11-15T08:07:28;95515.28;;;1.48;100.00
7662;BME280;30314;48.184;11.510;2022-11-15T08:10:16;95588.28;;;2.09;100.00
7662;BME280;30314;48.184;11.510;2022-11-15T08:13:06;95581.13;;;2.22;100.00
7662;BME280;30314;48.184;11.510;2022-11-15T08:15:57;95569.00;;;2.33;100.00
7662;BME280;30314;48.184;11.510;2022-11-15T08:18:43;95568.66;;;2.51;100.00
7662;BME280;30314;48.184;11.510;2022-11-15T08:21:30;95562.84;;;2.72;100.00
7662;BME280;30314;48.184;11.510;2022-11-15T08:24:16;95563.06;;;2.92;100.00
7662;BME280;30314;48.184;11.510;2022-11-15T08:27:04;95557.13;;;3.02;100.00
7662;BME280;30314;48.184;11.510;2022-11-15T08:29:50;95556.19;;;3.19;100.00
7662;BME280;30314;48.184;11.510;2022-11-15T08:32:43;95542.50;;;3.39;100.00
7662;BME280;30314;48.184;11.510;2022-11-15T08:35:29;95546.31;;;3.64;100.00
7662;BME280;30314;48.184;11.510;2022-11-15T08:38:15;95544.53;;;3.75;100.00
7662;BME280;30314;48.184;11.510;2022-11-15T08:41:03;95553.22;;;3.86;100.00
7662;BME280;30314;48.184;11.510;2022-11-15T08:43:52;95556.97;;;4.05;100.00
7662;BME280;30314;48.184;11.510;2022-11-15T08:46:38;95549.94;;;4.16;100.00
7662;BME280;30314;48.184;11.510;2022-11-15T08:49:24;95548.41;;;4.31;100.00
7662;BME280;30314;48.184;11.510;2022-11-15T08:52:10;95556.84;;;4.48;100.00
7662;BME280;30314;48.184;11.510;2022-11-15T08:54:56;95558.72;;;4.63;100.00
7662;BME280;30314;48.184;11.510;2022-11-15T08:57:42;95557.19;;;4.78;100.00
7662;BME280;30314;48.184;11.510;2022-11-15T09:00:30;95558.25;;;4.92;100.00
7662;BME280;30314;48.184;11.510;2022-11-15T09:03:16;95549.09;;;5.00;100.00
7662;BME280;30314;48.184;11.510;2022-11-15T09:06:03;95551.44;;;5.12;100.00
7662;BME280;30314;48.184;11.510;2022-11-15T09:08:49;95547.75;;;5.24;100.00
7662;BME280;30314;48.184;11.510;2022-11-15T09:11:35;95552.22;;;5.33;100.00
7662;BME280;30314;48.184;11.510;2022-11-15T09:14:21;95540.91;;;5.43;100.00
7662;BME280;30314;48.184;11.510;2022-11-15T09:17:09;95534.59;;;5.55;100.00
7662;BME280;30314;48.184;11.510;2022-11-15T09:19:55;95539.31;;;5.68;100.00
7662;BME280;30314;48.184;11.510;2022-11-15T09:22:41;95527.25;;;5.67;100.00
7662;BME280;30314;48.184;11.510;2022-11-15T09:25:28;95523.81;;;5.82;100.00
7662;BME280;30314;48.184;11.510;2022-11-15T09:28:15;95517.50;;;5.83;100.00
7662;BME280;30314;48.184;11.510;2022-11-15T09:31:03;95521.91;;;5.98;100.00
7662;BME280;30314;48.184;11.510;2022-11-15T09:33:52;95514.47;;;6.21;100.00
7662;BME280;30314;48.184;11.510;2022-11-15T09:36:38;95512.38;;;6.23;100.00
7662;BME280;30314;48.184;11.510;2022-11-15T09:39:24;95507.81;;;6.39;100.00
7662;BME280;30314;48.184;11.510;2022-11-15T09:42:28;95501.13;;;6.62;100.00
7662;BME280;30314;48.184;11.510;2022-11-15T09:45:20;95492.31;;;6.83;100.00
7662;BME280;30314;48.184;11.510;2022-11-15T09:48:24;95490.91;;;6.96;100.00
7662;BME280;30314;48.184;11.510;2022-11-15T09:51:26;95491.00;;;7.15;100.00
7662;BME280;30314;48.184;11.510;2022-11-15T09:54:01;95486.09;;;7.32;100.00
7662;BME280;30314;48.184;11.510;2022-11-15T09:56:50;95475.66;;;7.52;100.00
7662;BME280;30314;48.184;11.510;2022-11-15T09:59:37;95476.50;;;7.71;100.00
7662;BME280;30314;48.184;11.510;2022-11-15T10:02:17;95468.44;;;7.87;100.00
7662;BME280;30314;48.184;11.510;2022-11-15T10:04:51;95479.22;;;8.10;100.00
7662;BME280;30314;48.184;11.510;2022-11-15T10:07:23;95463.41;;;8.29;100.00
7662;BME280;30314;48.184;11.510;2022-11-15T10:09:56;95467.28;;;8.56;97.00
7662;BME280;30314;48.184;11.510;2022-11-15T10:12:28;95461.84;;;8.66;95.50
7662;BME280;30314;48.184;11.510;2022-11-15T10:15:00;95454.59;;;8.77;96.12
7662;BME280;30314;48.184;11.510;2022-11-15T10:17:54;95462.00;;;9.08;96.63
7662;BME280;30314;48.184;11.510;2022-11-15T10:20:27;95445.97;;;9.05;95.11
7662;BME280;30314;48.184;11.510;2022-11-15T10:23:00;95444.13;;;9.19;97.35
7662;BME280;30314;48.184;11.510;2022-11-15T10:25:31;95445.63;;;9.39;90.11
7662;BME280;30314;48.184;11.510;2022-11-15T10:28:00;95435.84;;;9.54;93.82
7662;BME280;30314;48.184;11.510;2022-11-15T10:30:34;95431.56;;;9.72;92.25
7662;BME280;30314;48.184;11.510;2022-11-15T10:33:12;95431.16;;;9.79;92.53
7662;BME280;30314;48.184;11.510;2022-11-15T10:35:42;95425.28;;;9.96;91.02
7662;BME280;30314;48.184;11.510;2022-11-15T10:38:12;95407.06;;;9.94;89.66
7662;BME280;30314;48.184;11.510;2022-11-15T10:40:40;95415.84;;;10.18;81.55
7662;BME280;30314;48.184;11.510;2022-11-15T10:43:15;95412.06;;;10.33;83.63
7662;BME280;30314;48.184;11.510;2022-11-15T10:45:44;95413.44;;;10.44;81.49
7662;BME280;30314;48.184;11.510;2022-11-15T10:48:25;95408.84;;;10.58;78.20
7662;BME280;30314;48.184;11.510;2022-11-15T10:50:54;95399.38;;;10.57;78.06
7662;BME280;30314;48.184;11.510;2022-11-15T10:53:32;95387.13;;;10.62;84.07
7662;BME280;30314;48.184;11.510;2022-11-15T10:56:05;95390.13;;;10.69;79.36
7662;BME280;30314;48.184;11.510;2022-11-15T10:58:37;95370.28;;;10.80;82.32
7662;BME280;30314;48.184;11.510;2022-11-15T11:01:13;95369.66;;;10.83;79.46
7662;BME280;30314;48.184;11.510;2022-11-15T11:03:43;95368.28;;;11.18;74.47
7662;BME280;30314;48.184;11.510;2022-11-15T11:06:13;95370.31;;;11.21;76.42
7662;BME280;30314;48.184;11.510;2022-11-15T11:08:54;95365.94;;;11.25;73.10
7662;BME280;30314;48.184;11.510;2022-11-15T11:11:23;95362.22;;;11.26;71.86
7662;BME280;30314;48.184;11.510;2022-11-15T11:13:51;95355.50;;;11.20;75.07
7662;BME280;30314;48.184;11.510;2022-11-15T11:16:32;95353.19;;;11.27;71.60
7662;BME280;30314;48.184;11.510;2022-11-15T11:19:17;95342.78;;;11.31;70.97
7662;BME280;30314;48.184;11.510;2022-11-15T11:21:49;95347.50;;;11.42;66.48
7662;BME280;30314;48.184;11.510;2022-11-15T11:24:27;95345.16;;;11.41;69.04
7662;BME280;30314;48.184;11.510;2022-11-15T11:27:09;95337.03;;;11.37;68.75
7662;BME280;30314;48.184;11.510;2022-11-15T11:29:54;95325.78;;;11.23;68.03
7662;BME280;30314;48.184;11.510;2022-11-15T11:35:24;95330.47;;;11.26;68.57
7662;BME280;30314;48.184;11.510;2022-11-15T11:37:56;95325.50;;;11.33;69.20
7662;BME280;30314;48.184;11.510;2022-11-15T11:40:31;95326.28;;;11.34;69.02
7662;BME280;30314;48.184;11.510;2022-11-15T11:43:08;95321.75;;;11.17;70.34
7662;BME280;30314;48.184;11.510;2022-11-15T11:46:09;95318.00;;;11.18;69.08
7662;BME280;30314;48.184;11.510;2022-11-15T11:48:41;95317.97;;;11.09;71.72
7662;BME280;30314;48.184;11.510;2022-11-15T11:51:17;95314.97;;;11.02;74.81
7662;BME280;30314;48.184;11.510;2022-11-15T11:53:51;95306.69;;;10.94;75.32
7662;BME280;30314;48.184;11.510;2022-11-15T11:56:26;95302.50;;;10.93;76.50
7662;BME280;30314;48.184;11.510;2022-11-15T11:58:57;95292.06;;;10.88;75.51
7662;BME280;30314;48.184;11.510;2022-11-15T12:01:32;95296.41;;;10.84;77.79
7662;BME280;30314;48.184;11.510;2022-11-15T12:04:08;95286.19;;;11.00;69.69
7662;BME280;30314;48.184;11.510;2022-11-15T12:06:41;95291.81;;;11.07;70.37
7662;BME280;30314;48.184;11.510;2022-11-15T12:09:17;95282.56;;;10.87;73.37
7662;BME280;30314;48.184;11.510;2022-11-15T12:11:54;95287.50;;;10.80;71.91
7662;BME280;30314;48.184;11.510;2022-11-15T12:14:31;95279.75;;;10.83;71.83
7662;BME280;30314;48.184;11.510;2022-11-15T12:17:00;95287.06;;;10.86;72.38
7662;BME280;30314;48.184;11.510;2022-11-15T12:19:29;95285.66;;;10.80;70.79
7662;BME280;30314;48.184;11.510;2022-11-15T12:22:01;95278.34;;;10.77;74.08
7662;BME280;30314;48.184;11.510;2022-11-15T12:24:35;95275.66;;;10.68;73.88
7662;BME280;30314;48.184;11.510;2022-11-15T12:27:15;95269.59;;;10.68;75.11
7662;BME280;30314;48.184;11.510;2022-11-15T12:29:55;95267.41;;;10.70;72.51
7662;BME280;30314;48.184;11.510;2022-11-15T12:32:26;95275.53;;;10.74;73.25
7662;BME280;30314;48.184;11.510;2022-11-15T12:34:56;95275.72;;;10.86;73.18
7662;BME280;30314;48.184;11.510;2022-11-15T12:37:47;95264.16;;;10.73;75.53
7662;BME280;30314;48.184;11.510;2022-11-15T12:40:22;95264.00;;;10.69;74.88
7662;BME280;30314;48.184;11.510;2022-11-15T12:43:00;95266.94;;;10.68;74.75
7662;BME280;30314;48.184;11.510;2022-11-15T12:45:30;95263.06;;;10.74;74.07
7662;BME280;30314;48.184;11.510;2022-11-15T12:51:04;95261.38;;;10.78;74.34
7662;BME280;30314;48.184;11.510;2022-11-15T12:53:33;95256.72;;;10.75;74.27
7662;BME280;30314;48.184;11.510;2022-11-15T12:56:20;95254.19;;;10.70;77.28
7662;BME280;30314;48.184;11.510;2022-11-15T12:58:53;95251.72;;;10.74;73.00
7662;BME280;30314;48.184;11.510;2022-11-15T13:01:59;95244.72;;;10.78;74.10
7662;BME280;30314;48.184;11.510;2022-11-15T13:04:29;95240.25;;;10.78;75.78
7662;BME280;30314;48.184;11.510;2022-11-15T13:07:00;95237.59;;;10.78;76.84
7662;BME280;30314;48.184;11.510;2022-11-15T13:15:54;95238.81;;;10.81;79.97
7662;BME280;30314;48.184;11.510;2022-11-15T13:18:35;95243.38;;;10.89;82.52
7662;BME280;30314;48.184;11.510;2022-11-15T13:21:05;95238.72;;;10.86;82.49
7662;BME280;30314;48.184;11.510;2022-11-15T13:24:03;95244.63;;;10.83;83.94
7662;BME280;30314;48.184;11.510;2022-11-15T13:26:31;95238.50;;;10.74;85.42
7662;BME280;30314;48.184;11.510;2022-11-15T13:28:59;95241.63;;;10.76;86.39
7662;BME280;30314;48.184;11.510;2022-11-15T13:31:36;95237.88;;;10.68;89.81
7662;BME280;30314;48.184;11.510;2022-11-15T13:34:24;95228.16;;;10.54;89.84
7662;BME280;30314;48.184;11.510;2022-11-15T13:37:27;95228.19;;;10.63;89.94
7662;BME280;30314;48.184;11.510;2022-11-15T13:40:15;95228.03;;;10.60;91.80
7662;BME280;30314;48.184;11.510;2022-11-15T13:42:45;95230.84;;;10.63;92.75
7662;BME280;30314;48.184;11.510;2022-11-15T13:45:15;95235.19;;;10.59;94.25
7662;BME280;30314;48.184;11.510;2022-11-15T13:47:51;95239.03;;;10.53;93.32
7662;BME280;30314;48.184;11.510;2022-11-15T13:50:20;95232.81;;;10.49;93.17
7662;BME280;30314;48.184;11.510;2022-11-15T13:52:49;95239.47;;;10.46;96.23
7662;BME280;30314;48.184;11.510;2022-11-15T13:55:18;95227.47;;;10.40;95.58
7662;BME280;30314;48.184;11.510;2022-11-15T13:57:49;95226.34;;;10.32;96.03
7662;BME280;30314;48.184;11.510;2022-11-15T14:00:27;95216.66;;;10.27;94.83
7662;BME280;30314;48.184;11.510;2022-11-15T14:03:05;95225.88;;;10.30;94.71
7662;BME280;30314;48.184;11.510;2022-11-15T14:05:34;95229.88;;;10.27;95.68
7662;BME280;30314;48.184;11.510;2022-11-15T14:08:21;95227.38;;;10.22;97.58
7662;BME280;30314;48.184;11.510;2022-11-15T14:11:09;95232.78;;;10.17;100.00
7662;BME280;30314;48.184;11.510;2022-11-15T14:13:40;95235.56;;;10.12;100.00
7662;BME280;30314;48.184;11.510;2022-11-15T14:16:18;95230.09;;;10.08;100.00
7662;BME280;30314;48.184;11.510;2022-11-15T14:18:49;95224.94;;;10.03;100.00
7662;BME280;30314;48.184;11.510;2022-11-15T14:21:19;95227.25;;;10.05;100.00
7662;BME280;30314;48.184;11.510;2022-11-15T14:23:47;95230.38;;;10.07;100.00
7662;BME280;30314;48.184;11.510;2022-11-15T14:26:36;95230.56;;;10.10;100.00
7662;BME280;30314;48.184;11.510;2022-11-15T14:29:22;95235.00;;;10.01;100.00
7662;BME280;30314;48.184;11.510;2022-11-15T14:31:50;95221.69;;;9.83;100.00
7662;BME280;30314;48.184;11.510;2022-11-15T14:34:19;95239.47;;;9.92;100.00
7662;BME280;30314;48.184;11.510;2022-11-15T14:36:48;95219.34;;;9.82;100.00
7662;BME280;30314;48.184;11.510;2022-11-15T14:39:16;95234.00;;;9.88;100.00
7662;BME280;30314;48.184;11.510;2022-11-15T14:41:43;95238.81;;;9.86;100.00
7662;BME280;30314;48.184;11.510;2022-11-15T14:44:11;95235.19;;;9.82;100.00